Time;durP1;ratioP1;P1;durP2;ratioP2;P2;SDS_P1;SDS_P2;PMS_P1;PMS_P2;Temp;Humidity;BMP_temperature;BMP_pressure;BME280_temperature;BME280_humidity;BME280_pressure;Samples;Min_cycle;Max_cycle;Signal;HPM_P1;HPM_P2
2022/04/15 00:02:57;;;;;;;;;15.00;6.00;;;;;;;;2;261069925;261069925;-79
2022/04/15 00:11:12;;;;;;;;;6.00;6.00;;;;;;;;2;260953773;260953773;-79
2022/04/15 00:20:11;;;;;;;;;4.50;4.50;;;;;;;;2;259367589;259367589;-79
2022/04/15 00:28:27;;;;;;;;;5.50;5.50;;;;;;;;2;261077835;261077835;-79
2022/04/15 00:37:27;;;;;;;;;14.50;3.00;;;;;;;;2;261074432;261074432;-79
2022/04/15 00:45:42;;;;;;;;;5.50;5.50;;;;;;;;2;260947842;260947842;-79
2022/04/15 00:54:44;;;;;;;;;4.50;4.50;;;;;;;;2;261078428;261078428;-79
2022/04/15 01:03:02;;;;;;;;;8.50;8.50;;;;;;;;2;261077581;261077581;-79
2022/04/15 01:12:03;;;;;;;;;9.50;7.50;;;;;;;;2;261075946;261075946;-79
2022/04/15 01:20:19;;;;;;;;;12.00;12.00;;;;;;;;2;261080677;261080677;-79
2022/04/15 01:32:39;;;;;;;;;19.50;10.50;;;;;;;;2;261075328;261075328;-79
2022/04/15 01:40:54;;;;;;;;;8.50;8.50;;;;;;;;2;261075351;261075351;-79
2022/04/15 01:49:55;;;;;;;;;20.50;8.50;;;;;;;;2;261076457;261076457;-79
2022/04/15 01:58:10;;;;;;;;;12.00;7.50;;;;;;;;2;261079262;261079262;-79
2022/04/15 02:07:11;;;;;;;;;9.50;5.50;;;;;;;;2;261076501;261076501;-79
2022/04/15 02:15:25;;;;;;;;;4.50;4.50;;;;;;;;2;260746889;260746889;-79
2022/04/15 02:24:24;;;;;;;;;4.00;4.00;;;;;;;;2;259870738;259870738;-80
2022/04/15 02:32:39;;;;;;;;;5.00;5.00;;;;;;;;2;261075512;261075512;-79
2022/04/15 02:41:38;;;;;;;;;5.50;5.50;;;;;;;;2;260806896;260806896;-79
2022/04/15 02:49:54;;;;;;;;;7.00;7.00;;;;;;;;2;261075759;261075759;-79
2022/04/15 02:58:53;;;;;;;;;7.50;5.00;;;;;;;;2;259830227;259830227;-79
2022/04/15 03:07:08;;;;;;;;;8.00;8.00;;;;;;;;2;261075056;261075056;-79
2022/04/15 03:16:09;;;;;;;;;13.00;13.00;;;;;;;;2;261075943;261075943;-79
2022/04/15 03:24:24;;;;;;;;;9.50;9.50;;;;;;;;2;261075128;261075128;-79
2022/04/15 03:33:25;;;;;;;;;4.00;4.00;;;;;;;;2;261077958;261077958;-78
2022/04/15 03:41:40;;;;;;;;;17.00;5.50;;;;;;;;2;261076552;261076552;-79
2022/04/15 03:50:40;;;;;;;;;8.50;8.50;;;;;;;;2;261074432;261074432;-79
2022/04/15 03:58:56;;;;;;;;;7.00;4.50;;;;;;;;2;261077979;261077979;-79
2022/04/15 04:07:57;;;;;;;;;8.00;8.00;;;;;;;;2;261076831;261076831;-79
2022/04/15 04:16:12;;;;;;;;;7.00;7.00;;;;;;;;2;261073055;261073055;-79
2022/04/15 04:25:12;;;;;;;;;10.50;5.00;;;;;;;;2;260432733;260432733;-79
2022/04/15 04:33:27;;;;;;;;;5.50;5.50;;;;;;;;2;261077620;261077620;-79
2022/04/15 04:42:28;;;;;;;;;5.50;5.50;;;;;;;;2;260885972;260885972;-76
2022/04/15 04:50:45;;;;;;;;;16.50;7.50;;;;;;;;2;261077602;261077602;-77
2022/04/15 04:59:46;;;;;;;;;8.00;8.00;;;;;;;;2;261076919;261076919;-76
2022/04/15 05:08:00;;;;;;;;;12.00;12.00;;;;;;;;2;259773488;259773488;-76
2022/04/15 05:16:58;;;;;;;;;5.00;5.00;;;;;;;;2;260054656;260054656;-76
2022/04/15 05:25:13;;;;;;;;;17.00;13.50;;;;;;;;2;261083906;261083906;-76
2022/04/15 05:34:14;;;;;;;;;10.50;10.50;;;;;;;;2;260948396;260948396;-79
2022/04/15 05:42:29;;;;;;;;;19.00;17.00;;;;;;;;2;261074386;261074386;-77
2022/04/15 05:51:30;;;;;;;;;19.00;7.00;;;;;;;;2;261079540;261079540;-75
2022/04/15 05:59:45;;;;;;;;;8.00;8.00;;;;;;;;2;261077725;261077725;-77
2022/04/15 06:08:45;;;;;;;;;6.00;6.00;;;;;;;;2;261078954;261078954;-77
2022/04/15 06:17:01;;;;;;;;;10.00;10.00;;;;;;;;2;261075365;261075365;-77
2022/04/15 06:26:02;;;;;;;;;11.50;11.50;;;;;;;;2;261076147;261076147;-77
2022/04/15 06:34:17;;;;;;;;;5.00;5.00;;;;;;;;2;261076644;261076644;-78
2022/04/15 06:43:17;;;;;;;;;5.00;5.00;;;;;;;;2;261076168;261076168;-78
2022/04/15 06:51:33;;;;;;;;;6.50;6.50;;;;;;;;2;261073422;261073422;-79
2022/04/15 07:00:33;;;;;;;;;19.50;8.00;;;;;;;;2;261077227;261077227;-78
2022/04/15 07:08:49;;;;;;;;;10.50;10.50;;;;;;;;2;261077198;261077198;-78
2022/04/15 07:17:49;;;;;;;;;19.50;10.50;;;;;;;;2;261076776;261076776;-80
2022/04/15 07:26:04;;;;;;;;;13.50;10.50;;;;;;;;2;260946534;260946534;-79
2022/04/15 07:35:05;;;;;;;;;16.00;16.00;;;;;;;;2;261078536;261078536;-79
2022/04/15 07:43:21;;;;;;;;;11.00;11.00;;;;;;;;2;261078472;261078472;-79
2022/04/15 07:52:21;;;;;;;;;8.50;8.50;;;;;;;;2;261077023;261077023;-80
2022/04/15 08:00:39;;;;;;;;;15.00;15.00;;;;;;;;2;261077625;261077625;-81
2022/04/15 08:09:40;;;;;;;;;10.50;10.50;;;;;;;;2;261075125;261075125;-81
2022/04/15 08:17:55;;;;;;;;;10.50;10.50;;;;;;;;2;261073501;261073501;-81
2022/04/15 08:26:57;;;;;;;;;10.00;10.00;;;;;;;;2;261072487;261072487;-79
2022/04/15 08:35:12;;;;;;;;;9.50;7.00;;;;;;;;2;261074176;261074176;-81
2022/04/15 08:44:14;;;;;;;;;6.00;6.00;;;;;;;;2;261078194;261078194;-81
2022/04/15 08:52:29;;;;;;;;;7.00;7.00;;;;;;;;2;261073335;261073335;-81
2022/04/15 09:01:28;;;;;;;;;5.50;5.50;;;;;;;;2;260918430;260918430;-81
2022/04/15 09:09:53;;;;;;;;;6.00;6.00;;;;;;;;2;261076248;261076248;-79
2022/04/15 09:18:54;;;;;;;;;16.50;5.50;;;;;;;;2;261074501;261074501;-79
2022/04/15 09:24:59;;;;;;;;;2.50;2.50;;;;;;;;2;252891175;252891175;-79
2022/04/15 09:34:06;;;;;;;;;3.00;3.00;;;;;;;;171706;28;277738121;-82
2022/04/15 09:42:24;;;;;;;;;2.00;2.00;;;;;;;;2;234067112;234067112;-82
2022/04/15 09:51:25;;;;;;;;;3.00;3.00;;;;;;;;2;279077720;279077720;-80
2022/04/15 09:59:44;;;;;;;;;1.50;1.50;;;;;;;;2;234070592;234070592;-80
2022/04/15 10:08:45;;;;;;;;;4.50;4.50;;;;;;;;2;279079483;279079483;-80
2022/04/15 10:17:01;;;;;;;;;2.00;2.00;;;;;;;;2;234068117;234068117;-80
2022/04/15 10:26:03;;;;;;;;;7.00;3.00;;;;;;;;2;279081022;279081022;-80
2022/04/15 10:34:19;;;;;;;;;1.50;1.50;;;;;;;;2;234068527;234068527;-81
2022/04/15 10:43:24;;;;;;;;;2.00;2.00;;;;;;;;2;279075364;279075364;-80
2022/04/15 10:51:39;;;;;;;;;7.50;7.50;;;;;;;;2;234065619;234065619;-81
2022/04/15 11:09:15;;;;;;;;;3.00;3.00;;;;;;;;2;234068216;234068216;-80
2022/04/15 11:18:16;;;;;;;;;2.00;2.00;;;;;;;;2;279079382;279079382;-80
2022/04/15 11:26:32;;;;;;;;;3.50;3.50;;;;;;;;2;234067573;234067573;-80
2022/04/15 11:35:33;;;;;;;;;1.50;1.50;;;;;;;;2;278043857;278043857;-80
2022/04/15 11:43:47;;;;;;;;;1.00;1.00;;;;;;;;2;232139318;232139318;-80
2022/04/15 11:52:46;;;;;;;;;5.00;5.00;;;;;;;;2;279079029;279079029;-80
2022/04/15 12:01:02;;;;;;;;;3.00;3.00;;;;;;;;2;234069790;234069790;-80
2022/04/15 12:10:04;;;;;;;;;2.00;2.00;;;;;;;;2;279081736;279081736;-79
2022/04/15 12:18:19;;;;;;;;;7.50;3.50;;;;;;;;2;234069341;234069341;-81
2022/04/15 12:27:17;;;;;;;;;4.50;4.50;;;;;;;;2;278291952;278291952;-81
2022/04/15 12:35:32;;;;;;;;;2.00;2.00;;;;;;;;2;233737288;233737288;-82
2022/04/15 12:44:32;;;;;;;;;4.50;4.50;;;;;;;;2;278621433;278621433;-81
2022/04/15 12:52:48;;;;;;;;;6.50;6.50;;;;;;;;2;234070958;234070958;-82
2022/04/15 13:01:49;;;;;;;;;15.50;3.50;;;;;;;;2;279080241;279080241;-83
2022/04/15 13:10:06;;;;;;;;;4.50;4.50;;;;;;;;2;234069770;234069770;-83
2022/04/15 13:19:04;;;;;;;;;11.50;3.50;;;;;;;;2;278805662;278805662;-83
2022/04/15 13:28:26;;;;;;;;;2.00;2.00;;;;;;;;344893;28;232998222;-83
2022/04/15 13:37:25;;;;;;;;;3.00;3.00;;;;;;;;2;277537115;277537115;-83
2022/04/15 13:45:40;;;;;;;;;3.00;3.00;;;;;;;;2;234067057;234067057;-83
2022/04/15 14:03:14;;;;;;;;;8.00;4.00;;;;;;;;2;233870942;233870942;-80
2022/04/15 14:12:19;;;;;;;;;7.00;2.00;;;;;;;;2;279081880;279081880;-82
2022/04/15 14:20:35;;;;;;;;;3.00;3.00;;;;;;;;2;234075971;234075971;-81
2022/04/15 14:30:14;;;;;;;;;;;;;;;;;;;;;
2022/04/15 14:38:43;;;;;;;;;6.50;6.50;;;;;;;;2;234096971;234096971;-81
2022/04/15 15:42:14;;;;;;;;;13.50;13.50;;;;;;;;2;279085808;279085808;-80
2022/04/15 15:50:30;;;;;;;;;13.50;13.50;;;;;;;;2;234069399;234069399;-80
2022/04/15 15:59:31;;;;;;;;;22.00;22.00;;;;;;;;2;279082338;279082338;-84
2022/04/15 16:07:58;;;;;;;;;10.00;10.00;;;;;;;;2;234074262;234074262;-84
2022/04/15 16:16:59;;;;;;;;;26.00;11.50;;;;;;;;2;279081870;279081870;-83
2022/04/15 16:25:39;;;;;;;;;16.50;16.50;;;;;;;;2;234069114;234069114;-84
2022/04/15 16:34:52;;;;;;;;;;;;;;;;;;;;;
2022/04/15 16:43:10;;;;;;;;;15.00;15.00;;;;;;;;2;233955193;233955193;-84
2022/04/15 16:52:13;;;;;;;;;14.00;14.00;;;;;;;;2;279081517;279081517;-83
2022/04/15 17:00:28;;;;;;;;;17.50;17.50;;;;;;;;2;234069076;234069076;-85
2022/04/15 17:09:30;;;;;;;;;15.00;15.00;;;;;;;;2;279087904;279087904;-80
2022/04/15 17:18:01;;;;;;;;;;;;;;;;;;;;;
2022/04/15 17:27:28;;;;;;;;;16.00;16.00;;;;;;;;2;279001187;279001187;-84
